createdAt,value
2023-01-29T00:01:57.340Z,7.00
2023-01-29T00:06:07.135Z,7.47
2023-01-29T00:10:09.900Z,6.82
2023-01-29T00:14:11.972Z,7.55
2023-01-29T00:18:14.247Z,6.50
2023-01-29T00:22:15.918Z,7.10
2023-01-29T00:26:18.069Z,7.07
2023-01-29T00:30:23.156Z,6.53
2023-01-29T00:34:25.426Z,6.75
2023-01-29T00:38:27.178Z,7.43
2023-01-29T00:42:47.315Z,7.35
2023-01-29T00:46:49.117Z,7.28
2023-01-29T00:50:50.948Z,6.40
2023-01-29T00:54:58.282Z,7.05
2023-01-29T00:59:00.175Z,7.38
2023-01-29T01:03:07.885Z,7.38
2023-01-29T01:07:09.730Z,7.20
2023-01-29T01:11:11.495Z,7.13
2023-01-29T01:15:13.487Z,7.55
2023-01-29T01:19:16.141Z,7.20
2023-01-29T01:23:20.913Z,7.05
2023-01-29T01:27:22.767Z,7.40
2023-01-29T01:31:24.609Z,7.90
2023-01-29T01:35:26.501Z,7.10
2023-01-29T01:39:28.356Z,7.93
2023-01-29T01:43:48.877Z,7.68
2023-01-29T01:48:16.592Z,7.78
2023-01-29T01:52:20.139Z,8.27
2023-01-29T01:56:27.071Z,7.60
2023-01-29T02:00:28.985Z,7.93
2023-01-29T02:04:49.359Z,8.27
2023-01-29T02:09:21.926Z,7.95
2023-01-29T02:13:24.008Z,8.05
2023-01-29T02:17:25.841Z,8.48
2023-01-29T02:22:13.409Z,7.22
2023-01-29T02:26:34.134Z,7.05
2023-01-29T02:30:40.498Z,7.97
2023-01-29T02:35:13.046Z,7.25
2023-01-29T02:39:28.520Z,7.38
2023-01-29T02:43:37.399Z,7.97
2023-01-29T02:52:20.037Z,7.40
2023-01-29T02:56:28.865Z,7.65
2023-01-29T03:00:36.913Z,8.07
2023-01-29T03:04:46.609Z,7.85
2023-01-29T03:08:58.487Z,8.82
2023-01-29T03:13:12.856Z,8.85
2023-01-29T03:17:15.171Z,9.40
2023-01-29T03:21:41.450Z,9.07
2023-01-29T03:26:04.276Z,9.90
2023-01-29T03:30:28.655Z,9.50
2023-01-29T03:34:57.217Z,7.53
2023-01-29T03:39:02.371Z,8.60
2023-01-29T15:51:59.774Z,9.45
2023-01-29T15:56:01.993Z,10.43
2023-01-29T16:00:05.560Z,9.07
2023-01-29T16:04:22.556Z,10.15
2023-01-29T16:08:26.979Z,10.85
2023-01-29T16:12:28.834Z,9.90
2023-01-29T16:16:31.128Z,10.43
2023-01-29T16:20:45.028Z,9.35
2023-01-29T16:24:47.966Z,10.13
2023-01-29T16:28:49.869Z,9.82
2023-01-29T16:32:51.649Z,10.35
2023-01-29T16:36:54.914Z,10.48
2023-01-29T16:41:15.486Z,11.48
2023-01-29T16:45:28.841Z,10.52
2023-01-29T16:49:30.548Z,11.70
2023-01-29T16:53:32.920Z,11.20
2023-01-29T16:57:34.744Z,11.23
2023-01-29T17:01:36.768Z,11.52
2023-01-29T17:05:39.013Z,12.70
2023-01-29T17:09:41.123Z,11.50
2023-01-29T17:13:45.679Z,11.18
2023-01-29T17:17:49.107Z,12.50
2023-01-29T17:21:51.321Z,9.90
2023-01-29T17:25:54.006Z,11.35
2023-01-29T17:29:55.819Z,11.73
2023-01-29T17:33:57.647Z,10.63
2023-01-29T17:37:59.412Z,10.98
2023-01-29T17:42:01.619Z,11.82
2023-01-29T17:46:03.664Z,13.07
2023-01-29T17:50:23.143Z,11.82
2023-01-29T17:54:25.836Z,12.23
2023-01-29T17:58:27.950Z,11.23
2023-01-29T18:02:30.069Z,11.90
2023-01-29T18:06:32.115Z,12.10
2023-01-29T18:10:33.927Z,12.15
2023-01-29T18:14:35.767Z,10.90
2023-01-29T18:18:37.467Z,13.05
2023-01-29T18:22:39.225Z,10.82
2023-01-29T18:26:41.013Z,11.63
2023-01-29T18:30:44.490Z,11.77
2023-01-29T18:34:46.303Z,11.93
2023-01-29T18:38:48.050Z,10.85
2023-01-29T18:42:49.863Z,11.05
2023-01-29T18:46:51.571Z,11.57
2023-01-29T18:50:53.387Z,10.73
2023-01-29T18:54:55.215Z,10.82
2023-01-29T18:58:57.002Z,10.93
2023-01-29T19:02:58.863Z,11.20
2023-01-29T19:07:00.584Z,9.95
2023-01-29T19:11:05.580Z,10.93
2023-01-29T19:15:08.356Z,10.77
2023-01-29T19:19:10.159Z,9.90
2023-01-29T19:23:12.035Z,9.85
2023-01-29T19:27:13.795Z,10.65
2023-01-29T19:31:15.600Z,9.63
2023-01-29T19:35:17.700Z,9.60
2023-01-29T19:39:19.754Z,8.90
2023-01-29T19:43:21.686Z,10.65
2023-01-29T19:47:23.510Z,10.55
2023-01-29T19:51:27.642Z,9.85
2023-01-29T19:55:30.809Z,9.75
2023-01-29T19:59:32.902Z,9.68
2023-01-29T20:03:34.957Z,10.00
2023-01-29T20:07:36.735Z,10.05
2023-01-29T20:11:38.538Z,11.02
2023-01-29T20:15:47.514Z,10.35
2023-01-29T20:19:49.296Z,11.15
2023-01-29T20:23:51.625Z,9.38
2023-01-29T20:27:53.408Z,9.80
2023-01-29T20:31:55.277Z,9.68
2023-01-29T20:35:59.420Z,9.15
2023-01-29T20:40:01.358Z,9.98
2023-01-29T20:44:03.261Z,8.85
2023-01-29T20:48:05.221Z,8.90
2023-01-29T20:52:08.695Z,9.85
2023-01-29T20:56:11.193Z,9.55
2023-01-29T21:00:15.227Z,9.30
2023-01-29T21:04:17.360Z,8.45
2023-01-29T21:08:19.122Z,7.80
2023-01-29T21:12:21.364Z,8.18
2023-01-29T21:16:23.687Z,7.93
2023-01-29T21:20:25.504Z,8.43
2023-01-29T21:24:27.278Z,8.27
2023-01-29T21:28:29.296Z,7.63
2023-01-29T21:32:31.019Z,6.88
2023-01-29T21:36:34.130Z,6.93
2023-01-29T21:40:35.966Z,7.00
2023-01-29T21:44:38.106Z,6.38
2023-01-29T21:48:40.363Z,6.55
2023-01-29T21:52:42.136Z,6.80
2023-01-29T21:56:44.179Z,6.20
2023-01-29T22:00:48.952Z,5.72
2023-01-29T22:04:52.371Z,5.97
2023-01-29T22:08:54.299Z,5.93
2023-01-29T22:12:56.254Z,5.32
2023-01-29T22:16:58.126Z,5.68
2023-01-29T22:21:02.721Z,5.30
2023-01-29T22:25:05.517Z,5.50
2023-01-29T22:29:07.320Z,4.22
2023-01-29T22:33:10.550Z,3.75
2023-01-29T22:37:12.411Z,3.85
2023-01-29T22:41:14.670Z,4.07
2023-01-29T22:45:16.925Z,3.45
2023-01-29T22:49:19.074Z,3.90
2023-01-29T22:53:20.819Z,3.63
2023-01-29T22:57:22.597Z,3.67
2023-01-29T23:01:28.527Z,4.45
2023-01-29T23:05:30.300Z,3.92
2023-01-29T23:09:32.060Z,4.32
2023-01-29T23:13:33.881Z,4.53
2023-01-29T23:17:35.856Z,4.68
2023-01-29T23:21:37.937Z,4.70
2023-01-29T23:25:58.254Z,4.57
2023-01-29T23:29:59.941Z,4.93
2023-01-29T23:34:01.666Z,4.05
2023-01-29T23:38:03.404Z,5.15
2023-01-29T23:42:05.423Z,5.38
2023-01-29T23:46:07.611Z,4.20
2023-01-29T23:50:10.211Z,4.28
2023-01-29T23:54:12.023Z,4.88
2023-01-29T23:58:13.725Z,4.35
